Time;durP1;ratioP1;P1;durP2;ratioP2;P2;SDS_P1;SDS_P2;PMS_P1;PMS_P2;Temp;Humidity;BMP_temperature;BMP_pressure;BME280_temperature;BME280_humidity;BME280_pressure;Samples;Min_cycle;Max_cycle;Signal;HPM_P1;HPM_P2
2021/11/21 00:00:52;;;;;;;15.80;12.10;;;;;;;10.17;79.27;99857.33;86789;1304;100158;-68
2021/11/21 00:03:05;;;;;;;14.70;12.50;;;;;;;10.17;79.25;99857.12;86748;1301;88734;-67
2021/11/21 00:05:14;;;;;;;16.10;13.20;;;;;;;10.14;79.26;99856.81;86598;1301;95500;-68
2021/11/21 00:07:21;;;;;;;16.50;12.60;;;;;;;10.10;79.19;99854.19;86908;1302;80561;-68
2021/11/21 00:09:31;;;;;;;14.80;12.70;;;;;;;10.07;79.29;99849.39;86890;1302;82350;-63
2021/11/21 00:11:42;;;;;;;16.60;12.70;;;;;;;10.04;79.30;99852.45;86889;1301;98707;-64
2021/11/21 00:13:52;;;;;;;15.50;12.20;;;;;;;10.00;79.28;99851.05;86901;1297;88434;-62
2021/11/21 00:16:04;;;;;;;14.40;12.10;;;;;;;9.95;79.39;99848.21;86603;1301;94457;-61
2021/11/21 00:18:13;;;;;;;14.70;11.40;;;;;;;9.96;79.45;99846.90;86913;1301;81478;-62
2021/11/21 00:20:27;;;;;;;13.30;11.60;;;;;;;9.99;79.43;99845.91;86589;1302;81735;-61
2021/11/21 00:22:38;;;;;;;14.60;12.00;;;;;;;10.00;79.38;99846.91;86635;1299;98727;-62
2021/11/21 00:24:45;;;;;;;14.00;11.50;;;;;;;10.01;79.38;99847.09;86619;1301;90062;-62
2021/11/21 00:27:00;;;;;;;14.60;11.90;;;;;;;10.02;79.40;99843.77;86599;1301;93949;-68
2021/11/21 00:29:11;;;;;;;17.80;12.90;;;;;;;9.99;79.32;99837.89;86618;1301;79855;-68
2021/11/21 00:31:21;;;;;;;14.00;12.00;;;;;;;9.97;79.32;99839.55;86625;1301;81220;-67
2021/11/21 00:33:33;;;;;;;14.00;12.00;;;;;;;9.96;79.18;99839.51;86601;1301;98516;-66
2021/11/21 00:35:45;;;;;;;14.20;12.00;;;;;;;9.91;79.26;99834.91;86828;1304;89121;-61
2021/11/21 00:37:58;;;;;;;14.40;11.50;;;;;;;9.88;79.28;99836.39;86901;1302;94072;-63
2021/11/21 00:40:11;;;;;;;14.00;11.40;;;;;;;9.88;79.30;99833.40;86791;1300;80096;-68
2021/11/21 00:42:21;;;;;;;14.20;11.90;;;;;;;9.86;79.31;99835.99;86891;1296;82478;-67
2021/11/21 00:44:27;;;;;;;16.60;12.40;;;;;;;9.87;79.29;99831.67;86920;1301;97464;-68
2021/11/21 00:46:33;;;;;;;13.90;11.30;;;;;;;9.89;79.35;99829.62;86901;1302;89001;-62
2021/11/21 00:48:44;;;;;;;13.20;11.40;;;;;;;9.92;79.45;99829.93;86905;1304;95857;-64
2021/11/21 00:50:53;;;;;;;15.40;12.10;;;;;;;9.95;79.31;99829.77;86917;1301;79040;-62
2021/11/21 00:53:04;;;;;;;13.60;11.00;;;;;;;9.94;79.30;99826.41;86601;1297;81255;-61
2021/11/21 00:55:13;;;;;;;15.70;12.60;;;;;;;9.96;79.42;99830.66;86929;1301;98440;-63
2021/11/21 00:57:22;;;;;;;13.60;11.90;;;;;;;9.97;79.36;99830.23;86914;1301;87855;-62
2021/11/21 00:59:32;;;;;;;14.80;12.80;;;;;;;9.95;79.23;99828.48;86909;1301;95009;-62
2021/11/21 01:01:38;;;;;;;16.00;12.70;;;;;;;9.94;79.25;99828.38;86909;1301;81165;-61
2021/11/21 01:03:45;;;;;;;14.20;11.80;;;;;;;9.91;79.34;99823.24;86933;1302;81728;-62
2021/11/21 01:05:53;;;;;;;14.90;12.20;;;;;;;9.90;79.24;99819.46;86913;1304;99654;-62
2021/11/21 01:07:59;;;;;;;13.00;11.50;;;;;;;9.88;79.36;99816.79;86930;1301;89469;-63
2021/11/21 01:10:07;;;;;;;14.20;11.80;;;;;;;9.89;79.33;99818.66;86890;1305;93298;-63
2021/11/21 01:12:16;;;;;;;14.80;12.40;;;;;;;9.94;79.37;99813.20;86904;1301;79523;-62
2021/11/21 01:14:25;;;;;;;13.90;11.40;;;;;;;9.96;79.31;99809.41;86897;1304;83765;-62
2021/11/21 01:16:32;;;;;;;14.50;12.40;;;;;;;9.98;79.32;99806.31;86883;1302;98502;-64
2021/11/21 01:18:41;;;;;;;15.30;12.30;;;;;;;10.00;79.25;99804.73;86890;1301;87702;-62
2021/11/21 01:20:47;;;;;;;13.50;11.50;;;;;;;10.00;79.17;99807.30;86899;1300;93230;-61
2021/11/21 01:22:56;;;;;;;14.10;12.50;;;;;;;9.98;79.22;99809.08;86909;1301;81027;-63
2021/11/21 01:25:04;;;;;;;19.00;12.80;;;;;;;9.95;79.21;99803.42;86906;1302;80636;-66
2021/11/21 01:27:11;;;;;;;15.20;12.50;;;;;;;9.95;79.13;99799.35;86790;1301;98499;-63
2021/11/21 01:29:21;;;;;;;15.70;12.80;;;;;;;9.90;79.16;99790.31;86787;1301;86837;-63
2021/11/21 01:31:31;;;;;;;15.40;12.20;;;;;;;9.89;79.15;99790.10;86784;1305;95482;-65
2021/11/21 01:33:39;;;;;;;14.40;11.90;;;;;;;9.88;79.12;99786.38;86886;1301;82236;-62
2021/11/21 01:35:49;;;;;;;15.90;12.10;;;;;;;9.90;79.18;99789.77;86916;1302;82956;-67
2021/11/21 01:38:01;;;;;;;16.10;11.60;;;;;;;9.88;79.26;99781.43;86903;1297;97005;-68
2021/11/21 01:40:14;;;;;;;15.10;11.90;;;;;;;9.91;79.21;99775.47;86898;1301;89296;-61
2021/11/21 01:42:22;;;;;;;15.30;12.10;;;;;;;9.95;79.19;99770.63;86886;1302;95842;-63
2021/11/21 01:44:28;;;;;;;15.10;11.80;;;;;;;9.91;79.19;99771.23;86900;1302;79807;-62
2021/11/21 01:46:40;;;;;;;14.50;12.20;;;;;;;9.94;79.12;99764.98;86909;1305;82249;-63
2021/11/21 01:48:49;;;;;;;14.20;12.40;;;;;;;9.94;79.07;99760.20;86894;1301;98512;-62
2021/11/21 01:50:58;;;;;;;13.30;11.00;;;;;;;9.89;79.08;99759.64;86890;1301;89826;-67
2021/11/21 01:53:04;;;;;;;15.30;12.10;;;;;;;9.88;79.07;99762.34;86887;1301;95843;-67
2021/11/21 01:55:11;;;;;;;15.70;12.10;;;;;;;9.85;78.97;99755.64;86908;1296;82349;-67
2021/11/21 01:57:20;;;;;;;15.50;11.90;;;;;;;9.82;78.92;99756.40;86927;1301;81644;-67
2021/11/21 01:59:27;;;;;;;15.70;12.20;;;;;;;9.81;78.97;99757.70;86899;1302;99359;-67
2021/11/21 02:01:35;;;;;;;14.30;11.20;;;;;;;9.79;79.03;99750.47;86908;1304;88099;-71
2021/11/21 02:03:44;;;;;;;14.90;11.70;;;;;;;9.78;79.06;99748.05;86858;1297;95174;-67
2021/11/21 02:05:51;;;;;;;15.10;11.20;;;;;;;9.79;79.08;99740.75;86838;1301;79599;-68
2021/11/21 02:07:57;;;;;;;13.70;10.60;;;;;;;9.79;79.17;99734.17;86924;1301;82994;-66
2021/11/21 02:10:05;;;;;;;14.20;11.60;;;;;;;9.84;79.04;99731.60;86894;1297;97223;-68
2021/11/21 02:12:12;;;;;;;15.70;11.80;;;;;;;9.84;78.96;99728.08;86913;1301;88343;-69
2021/11/21 02:14:18;;;;;;;14.60;11.70;;;;;;;9.87;78.97;99724.39;86895;1301;95424;-67
2021/11/21 02:16:27;;;;;;;16.00;12.10;;;;;;;9.88;78.93;99726.02;86924;1302;78232;-63
2021/11/21 02:18:36;;;;;;;15.50;12.50;;;;;;;9.85;78.81;99718.09;86906;1301;82957;-63
2021/11/21 02:20:54;;;;;;;14.50;11.20;;;;;;;9.80;78.79;99719.00;86924;1301;100330;-68
2021/11/21 02:23:01;;;;;;;16.80;11.60;;;;;;;9.75;78.73;99723.02;86930;1300;88956;-67
2021/11/21 02:25:11;;;;;;;15.30;11.60;;;;;;;9.75;78.75;99721.52;86866;1300;95443;-66
2021/11/21 02:27:25;;;;;;;14.30;11.30;;;;;;;9.72;78.73;99711.73;86597;1301;81674;-68
2021/11/21 02:29:31;;;;;;;14.80;11.80;;;;;;;9.73;78.79;99713.84;86938;1301;79878;-68
2021/11/21 02:31:39;;;;;;;15.40;11.50;;;;;;;9.75;78.84;99710.23;86865;1305;100171;-68
2021/11/21 02:33:50;;;;;;;13.90;12.00;;;;;;;9.77;78.80;99714.12;86899;1302;89130;-67
2021/11/21 02:36:01;;;;;;;14.30;12.00;;;;;;;9.81;78.74;99707.40;86903;1301;95996;-67
2021/11/21 02:38:08;;;;;;;15.30;11.70;;;;;;;9.82;78.76;99703.83;86896;1304;78024;-67
2021/11/21 02:40:17;;;;;;;14.60;11.50;;;;;;;9.80;78.68;99701.29;86899;1300;82187;-62
2021/11/21 02:42:34;;;;;;;16.90;12.10;;;;;;;9.77;78.67;99701.48;86881;1302;99929;-63
2021/11/21 02:44:40;;;;;;;15.20;12.50;;;;;;;9.75;78.62;99698.25;86889;1305;87853;-63
2021/11/21 02:46:51;;;;;;;14.80;12.00;;;;;;;9.72;78.64;99701.76;86886;1301;94367;-68
2021/11/21 02:49:00;;;;;;;14.80;11.70;;;;;;;9.68;78.65;99698.70;86868;1302;81747;-69
2021/11/21 02:51:09;;;;;;;15.20;12.10;;;;;;;9.66;78.72;99699.70;86689;1301;80749;-68
2021/11/21 02:53:19;;;;;;;17.00;11.90;;;;;;;9.65;78.68;99692.77;86573;1303;99880;-67
2021/11/21 02:55:31;;;;;;;16.30;12.20;;;;;;;9.66;78.67;99687.80;86604;1302;89072;-63
2021/11/21 02:57:38;;;;;;;16.40;11.80;;;;;;;9.68;78.70;99678.63;86600;1301;92582;-63
2021/11/21 02:59:44;;;;;;;15.70;12.10;;;;;;;9.68;78.69;99685.27;86563;1304;79327;-64
2021/11/21 03:01:50;;;;;;;16.00;12.10;;;;;;;9.71;78.68;99682.49;86603;1301;82680;-62
2021/11/21 03:03:57;;;;;;;15.90;12.80;;;;;;;9.72;78.66;99679.89;86565;1307;100369;-62
2021/11/21 03:06:03;;;;;;;14.80;12.40;;;;;;;9.73;78.62;99680.69;86667;1304;89747;-62
2021/11/21 03:08:09;;;;;;;16.90;13.30;;;;;;;9.72;78.57;99678.86;86721;1302;95357;-62
2021/11/21 03:10:18;;;;;;;18.60;13.40;;;;;;;9.69;78.62;99676.23;86760;1301;80491;-69
2021/11/21 03:12:25;;;;;;;18.30;13.60;;;;;;;9.66;78.54;99679.45;86794;1301;81683;-69
2021/11/21 03:14:32;;;;;;;22.90;13.60;;;;;;;9.63;78.54;99674.08;86800;1301;98332;-68
2021/11/21 03:16:38;;;;;;;15.60;12.60;;;;;;;9.62;78.56;99674.37;86788;1301;87729;-68
2021/11/21 03:18:44;;;;;;;16.30;11.40;;;;;;;9.64;78.51;99669.81;86576;1301;96710;-70
2021/11/21 03:20:50;;;;;;;16.00;12.30;;;;;;;9.66;78.59;99670.11;86776;1299;80361;-63
2021/11/21 03:22:58;;;;;;;14.70;12.20;;;;;;;9.65;78.66;99669.70;86798;1306;82642;-67
2021/11/21 03:25:05;;;;;;;14.00;12.10;;;;;;;9.67;78.58;99669.41;86782;1301;99270;-63
2021/11/21 03:27:15;;;;;;;15.60;13.00;;;;;;;9.65;78.61;99663.42;86800;1301;88416;-62
2021/11/21 03:29:22;;;;;;;16.10;12.90;;;;;;;9.67;78.62;99659.73;86765;1301;95391;-62
2021/11/21 03:31:31;;;;;;;18.30;13.40;;;;;;;9.68;78.58;99653.70;86765;1305;79779;-67
2021/11/21 03:33:38;;;;;;;17.00;13.20;;;;;;;9.69;78.47;99653.73;86760;1302;81883;-68
2021/11/21 03:35:45;;;;;;;17.00;13.30;;;;;;;9.67;78.43;99653.77;86754;1308;99592;-67
2021/11/21 03:37:54;;;;;;;17.90;13.90;;;;;;;9.64;78.39;99647.23;86742;1301;87751;-67
2021/11/21 03:40:00;;;;;;;16.20;12.50;;;;;;;9.60;78.36;99649.77;86770;1301;95428;-62
2021/11/21 03:42:07;;;;;;;17.10;13.50;;;;;;;9.58;78.40;99652.32;86791;1306;81312;-63
2021/11/21 03:44:13;;;;;;;18.60;13.40;;;;;;;9.56;78.41;99653.17;86755;1301;83327;-62
2021/11/21 03:46:21;;;;;;;18.20;12.60;;;;;;;9.56;78.39;99653.10;86806;1304;97765;-63
2021/11/21 03:48:27;;;;;;;20.00;13.80;;;;;;;9.57;78.40;99653.02;86807;1304;88641;-62
2021/11/21 03:50:34;;;;;;;16.30;13.80;;;;;;;9.58;78.34;99650.91;86801;1308;95191;-62
2021/11/21 03:52:43;;;;;;;18.30;13.50;;;;;;;9.54;78.41;99645.63;86819;1302;78640;-62
2021/11/21 03:54:53;;;;;;;17.70;14.00;;;;;;;9.55;78.45;99641.40;86745;1302;80463;-63
2021/11/21 03:57:01;;;;;;;19.30;14.60;;;;;;;9.53;78.40;99644.76;86785;1301;97514;-68
2021/11/21 03:59:08;;;;;;;19.50;14.20;;;;;;;9.52;78.23;99646.62;86795;1297;86211;-69
2021/11/21 04:01:14;;;;;;;17.40;13.40;;;;;;;9.47;78.31;99638.88;86759;1301;95713;-68
2021/11/21 04:03:23;;;;;;;17.20;12.60;;;;;;;9.41;78.37;99638.19;86797;1301;79895;-68
2021/11/21 04:05:33;;;;;;;17.90;13.50;;;;;;;9.38;78.33;99637.27;86791;1305;82998;-68
2021/11/21 04:07:40;;;;;;;17.80;13.20;;;;;;;9.41;78.45;99638.06;86776;1301;99996;-66
2021/11/21 04:09:47;;;;;;;18.20;13.10;;;;;;;9.44;78.42;99631.90;86778;1302;88831;-67
2021/11/21 04:11:53;;;;;;;18.90;13.10;;;;;;;9.44;78.29;99630.23;86764;1301;95796;-61
2021/11/21 04:14:00;;;;;;;19.80;14.50;;;;;;;9.45;78.23;99624.52;86757;1301;78028;-62
2021/11/21 04:16:08;;;;;;;18.80;14.00;;;;;;;9.44;78.26;99628.25;86795;1299;81844;-68
2021/11/21 04:18:14;;;;;;;19.60;14.10;;;;;;;9.42;78.11;99624.17;86794;1305;98397;-68
2021/11/21 04:20:21;;;;;;;20.80;14.10;;;;;;;9.37;77.88;99615.15;86779;1301;88362;-67
2021/11/21 04:22:31;;;;;;;18.60;13.70;;;;;;;9.29;78.03;99617.11;86775;1301;95384;-68
2021/11/21 04:24:40;;;;;;;17.90;13.00;;;;;;;9.27;78.05;99626.29;86554;1305;80379;-68
2021/11/21 04:26:49;;;;;;;19.70;13.30;;;;;;;9.25;78.07;99618.98;86760;1301;82259;-62
2021/11/21 04:28:55;;;;;;;18.30;13.40;;;;;;;9.23;78.17;99627.20;86783;1301;99884;-62
2021/11/21 04:31:05;;;;;;;22.00;13.00;;;;;;;9.24;78.06;99620.92;86774;1301;86592;-63
2021/11/21 04:33:11;;;;;;;18.70;13.90;;;;;;;9.24;78.07;99622.85;86755;1308;95851;-62
2021/11/21 04:35:20;;;;;;;17.30;12.90;;;;;;;9.24;78.11;99621.95;86755;1302;78304;-69
2021/11/21 04:37:26;;;;;;;17.20;13.00;;;;;;;9.27;78.01;99625.80;86771;1302;83247;-68
2021/11/21 04:39:35;;;;;;;18.00;14.00;;;;;;;9.26;78.09;99624.02;86765;1301;99105;-68
2021/11/21 04:41:44;;;;;;;19.90;14.20;;;;;;;9.27;78.03;99625.64;86579;1305;89564;-68
2021/11/21 04:43:51;;;;;;;18.00;13.80;;;;;;;9.25;77.98;99623.60;86786;1297;93969;-69
2021/11/21 04:45:57;;;;;;;19.10;14.00;;;;;;;9.23;77.95;99615.83;86766;1302;82598;-62
2021/11/21 04:48:04;;;;;;;18.00;13.40;;;;;;;9.19;77.92;99615.94;86785;1304;80261;-64
2021/11/21 04:50:13;;;;;;;19.00;13.40;;;;;;;9.19;77.90;99615.11;86774;1307;99376;-60
2021/11/21 04:52:19;;;;;;;20.20;13.00;;;;;;;9.20;77.88;99618.27;86752;1304;88169;-62
2021/11/21 04:54:26;;;;;;;18.40;13.40;;;;;;;9.17;77.85;99612.11;86786;1301;95513;-61
2021/11/21 04:56:35;;;;;;;19.10;13.50;;;;;;;9.16;77.88;99613.31;86783;1304;81281;-67
2021/11/21 04:58:42;;;;;;;19.80;14.10;;;;;;;9.19;77.95;99612.91;86780;1297;80260;-67
2021/11/21 05:00:49;;;;;;;17.30;13.10;;;;;;;9.22;77.84;99612.55;86744;1301;97866;-68
2021/11/21 05:02:55;;;;;;;19.60;14.10;;;;;;;9.24;77.89;99615.80;86790;1301;89492;-68
2021/11/21 05:05:01;;;;;;;18.70;14.10;;;;;;;9.24;77.86;99610.99;86600;1307;94846;-63
2021/11/21 05:07:08;;;;;;;19.30;14.00;;;;;;;9.23;77.81;99614.71;86794;1301;78504;-64
2021/11/21 05:09:14;;;;;;;19.50;13.80;;;;;;;9.19;77.73;99615.78;86816;1302;80278;-63
2021/11/21 05:11:21;;;;;;;19.30;13.60;;;;;;;9.16;77.75;99617.25;86768;1302;98442;-69
2021/11/21 05:13:29;;;;;;;21.40;14.40;;;;;;;9.16;77.73;99616.22;86810;1301;88116;-69
2021/11/21 05:15:36;;;;;;;19.70;14.40;;;;;;;9.14;77.81;99612.09;86784;1302;95455;-67
2021/11/21 05:17:45;;;;;;;20.10;13.80;;;;;;;9.12;77.84;99612.80;86787;1305;81633;-68
2021/11/21 05:19:54;;;;;;;20.00;13.80;;;;;;;9.12;77.94;99605.04;86782;1304;82164;-68
2021/11/21 05:22:04;;;;;;;20.80;13.60;;;;;;;9.16;77.95;99601.70;86762;1301;100172;-67
2021/11/21 05:24:18;;;;;;;20.00;13.70;;;;;;;9.18;77.97;99605.15;86774;1308;87582;-68
2021/11/21 05:26:26;;;;;;;21.60;14.60;;;;;;;9.22;77.93;99603.40;86787;1301;94845;-70
2021/11/21 05:28:35;;;;;;;19.80;14.40;;;;;;;9.23;77.86;99595.52;86750;1304;78860;-69
2021/11/21 05:30:46;;;;;;;20.40;14.50;;;;;;;9.24;77.79;99595.98;86771;1300;81570;-67
2021/11/21 05:32:53;;;;;;;20.40;14.50;;;;;;;9.20;77.81;99587.26;86795;1299;97390;-69
2021/11/21 05:34:59;;;;;;;19.40;14.20;;;;;;;9.17;77.81;99590.44;86767;1307;87035;-63
2021/11/21 05:37:08;;;;;;;20.80;14.10;;;;;;;9.13;77.98;99591.45;86758;1301;95704;-62
2021/11/21 05:39:16;;;;;;;22.10;14.80;;;;;;;9.10;77.98;99591.43;86764;1307;82382;-62
2021/11/21 05:41:22;;;;;;;23.20;15.10;;;;;;;9.07;78.16;99590.70;86791;1302;82508;-68
2021/11/21 05:43:28;;;;;;;20.90;15.10;;;;;;;9.06;78.23;99585.36;86757;1301;97888;-69
2021/11/21 05:45:38;;;;;;;21.30;15.60;;;;;;;9.05;78.28;99582.41;86797;1304;87941;-66
2021/11/21 05:47:44;;;;;;;20.50;14.70;;;;;;;9.05;78.34;99585.55;86789;1305;95598;-67
2021/11/21 05:49:51;;;;;;;20.40;14.40;;;;;;;9.05;78.42;99582.79;86783;1299;81141;-67
2021/11/21 05:51:57;;;;;;;20.80;14.10;;;;;;;9.08;78.43;99586.48;86782;1305;81841;-62
2021/11/21 05:54:07;;;;;;;23.30;15.50;;;;;;;9.11;78.41;99584.68;86774;1301;100169;-63
2021/11/21 05:56:14;;;;;;;19.80;14.30;;;;;;;9.14;78.30;99585.52;86802;1305;87424;-68
2021/11/21 05:58:23;;;;;;;21.70;15.10;;;;;;;9.15;78.29;99585.61;86759;1302;94748;-68
2021/11/21 06:00:30;;;;;;;22.10;15.90;;;;;;;9.14;78.28;99579.40;86786;1298;79722;-69
2021/11/21 06:02:36;;;;;;;23.30;15.80;;;;;;;9.13;78.31;99581.20;86793;1306;80192;-68
2021/11/21 06:04:46;;;;;;;24.80;16.30;;;;;;;9.07;78.30;99582.50;86748;1301;100200;-68
2021/11/21 06:06:55;;;;;;;22.30;15.40;;;;;;;9.04;78.27;99582.54;86780;1301;88298;-68
2021/11/21 06:09:02;;;;;;;21.10;15.60;;;;;;;9.00;78.29;99580.20;86743;1301;93710;-69
2021/11/21 06:11:08;;;;;;;23.80;16.00;;;;;;;9.01;78.25;99575.67;86786;1302;80756;-67
2021/11/21 06:13:15;;;;;;;21.60;14.80;;;;;;;9.02;78.36;99572.77;86590;1296;257249;-69
2021/11/21 06:15:21;;;;;;;21.40;14.90;;;;;;;9.01;78.34;99574.23;86589;1305;99934;-62
2021/11/21 06:17:27;;;;;;;20.90;14.20;;;;;;;9.01;78.37;99573.27;86608;1305;89704;-61
2021/11/21 06:19:38;;;;;;;20.90;15.40;;;;;;;9.03;78.44;99572.63;86778;1306;95250;-62
2021/11/21 06:21:43;;;;;;;18.60;13.80;;;;;;;9.05;78.42;99573.34;86766;1302;79685;-63
2021/11/21 06:23:53;;;;;;;21.40;15.50;;;;;;;9.05;78.40;99575.40;86799;1307;82790;-63
2021/11/21 06:25:59;;;;;;;24.30;14.40;;;;;;;9.06;78.28;99577.48;86767;1306;98422;-68
2021/11/21 06:28:08;;;;;;;20.40;14.80;;;;;;;9.06;78.21;99577.48;86766;1301;87305;-68
2021/11/21 06:30:17;;;;;;;22.60;14.90;;;;;;;9.05;78.24;99581.33;86761;1307;95542;-63
2021/11/21 06:32:23;;;;;;;22.80;15.70;;;;;;;9.04;78.33;99572.25;86753;1305;80132;-63
2021/11/21 06:34:29;;;;;;;19.90;13.80;;;;;;;9.01;78.25;99572.29;86779;1301;81387;-63
2021/11/21 06:36:39;;;;;;;19.70;13.70;;;;;;;9.00;78.32;99567.38;86786;1301;100142;-62
2021/11/21 06:38:46;;;;;;;18.90;13.00;;;;;;;9.00;78.28;99565.23;86764;1301;89495;-62
2021/11/21 06:40:55;;;;;;;19.40;14.10;;;;;;;8.96;78.37;99567.61;86782;1307;94699;-63
2021/11/21 06:43:00;;;;;;;18.50;13.70;;;;;;;8.99;78.39;99565.64;86772;1304;81033;-63
2021/11/21 06:45:09;;;;;;;19.10;13.50;;;;;;;9.04;78.40;99568.12;86826;1301;80800;-67
2021/11/21 06:47:15;;;;;;;20.60;13.70;;;;;;;9.07;78.45;99567.50;86783;1304;97974;-69
2021/11/21 06:49:22;;;;;;;18.80;13.80;;;;;;;9.10;78.45;99568.09;86780;1302;89313;-68
2021/11/21 06:51:32;;;;;;;20.10;14.50;;;;;;;9.12;78.43;99568.08;86787;1307;95906;-63
2021/11/21 06:53:38;;;;;;;19.90;14.10;;;;;;;9.11;78.40;99568.14;86765;1297;78516;-61
2021/11/21 06:55:44;;;;;;;20.10;14.00;;;;;;;9.11;78.31;99567.44;86792;1303;82368;-68
2021/11/21 06:57:51;;;;;;;22.80;14.60;;;;;;;9.10;78.29;99570.17;86751;1307;100298;-67
2021/11/21 07:00:01;;;;;;;19.20;13.40;;;;;;;9.06;78.28;99567.41;86812;1308;88724;-62
2021/11/21 07:02:10;;;;;;;21.60;14.10;;;;;;;9.06;78.34;99566.45;86772;1304;95719;-62
2021/11/21 07:04:16;;;;;;;23.10;13.30;;;;;;;9.09;78.28;99560.17;86615;1300;79376;-62
2021/11/21 07:06:35;;;;;;;20.40;13.20;;;;;;;9.11;78.39;99553.96;86787;1307;81790;-62
2021/11/21 07:08:42;;;;;;;21.20;14.60;;;;;;;9.15;78.45;99555.98;86803;1304;97974;-62
2021/11/21 07:10:47;;;;;;;21.00;14.10;;;;;;;9.16;78.38;99554.87;86844;1303;87399;-63
2021/11/21 07:12:54;;;;;;;19.50;14.10;;;;;;;9.17;78.42;99553.78;86775;1295;91771;-62
2021/11/21 07:15:01;;;;;;;21.90;14.20;;;;;;;9.18;78.40;99554.05;86761;1301;78081;-62
2021/11/21 07:17:08;;;;;;;21.00;14.70;;;;;;;9.17;78.31;99553.08;86777;1307;81318;-62
2021/11/21 07:19:14;;;;;;;20.90;14.20;;;;;;;9.13;78.34;99555.48;86747;1301;100114;-63
2021/11/21 07:21:21;;;;;;;20.20;14.30;;;;;;;9.11;78.35;99555.38;86811;1302;89122;-69
2021/11/21 07:23:27;;;;;;;21.50;14.70;;;;;;;9.10;78.35;99551.39;86595;1298;94156;-68
2021/11/21 07:25:34;;;;;;;22.40;14.80;;;;;;;9.12;78.41;99554.98;86759;1298;80454;-68
2021/11/21 07:27:42;;;;;;;20.90;14.40;;;;;;;9.12;78.43;99554.19;86790;1301;83516;-68
2021/11/21 07:29:52;;;;;;;20.30;14.30;;;;;;;9.14;78.47;99550.58;86759;1301;99674;-67
2021/11/21 07:31:59;;;;;;;23.10;16.10;;;;;;;9.16;78.54;99553.00;86767;1306;88607;-62
2021/11/21 07:34:09;;;;;;;21.10;14.90;;;;;;;9.17;78.48;99552.88;86791;1301;93939;-62
2021/11/21 07:36:18;;;;;;;22.70;16.00;;;;;;;9.20;78.48;99554.55;86763;1301;78538;-67
2021/11/21 07:38:27;;;;;;;21.60;15.10;;;;;;;9.19;78.49;99550.05;86764;1307;82342;-68
2021/11/21 07:40:33;;;;;;;23.60;16.20;;;;;;;9.20;78.45;99550.80;86781;1301;99686;-68
2021/11/21 07:42:44;;;;;;;21.80;15.40;;;;;;;9.17;78.42;99541.14;86766;1308;90197;-67
2021/11/21 07:45:00;;;;;;;23.90;16.00;;;;;;;9.15;78.39;99545.02;86748;1306;95579;-68
2021/11/21 07:47:09;;;;;;;21.70;15.10;;;;;;;9.11;78.45;99551.11;86599;1308;79947;-65
2021/11/21 07:49:19;;;;;;;21.80;15.20;;;;;;;9.08;78.59;99548.86;86585;1301;80637;-62
2021/11/21 07:51:26;;;;;;;22.30;15.20;;;;;;;9.08;78.54;99545.70;86780;1306;99871;-63
2021/11/21 07:53:32;;;;;;;21.80;14.10;;;;;;;9.10;78.59;99541.61;86600;1305;87438;-62
2021/11/21 07:55:39;;;;;;;22.80;15.10;;;;;;;9.12;78.46;99543.86;86776;1306;95837;-68
2021/11/21 07:57:46;;;;;;;20.50;14.40;;;;;;;9.13;78.43;99544.73;86749;1297;80100;-68
2021/11/21 07:59:55;;;;;;;21.00;14.70;;;;;;;9.16;78.50;99547.90;86590;1307;82742;-68
2021/11/21 08:02:01;;;;;;;22.40;15.50;;;;;;;9.20;78.41;99550.23;86735;1305;100022;-62
2021/11/21 08:04:08;;;;;;;22.60;14.90;;;;;;;9.23;78.47;99548.50;86785;1301;86548;-64
2021/11/21 08:06:14;;;;;;;20.70;14.90;;;;;;;9.25;78.42;99549.30;86782;1301;94429;-62
2021/11/21 08:08:20;;;;;;;21.20;16.20;;;;;;;9.30;78.41;99551.98;86773;1303;77940;-62
2021/11/21 08:10:26;;;;;;;22.50;16.50;;;;;;;9.36;78.30;99550.48;86795;1297;81370;-68
2021/11/21 08:12:35;;;;;;;23.80;16.00;;;;;;;9.39;78.14;99555.41;86790;1304;99676;-68
2021/11/21 08:14:45;;;;;;;20.40;15.60;;;;;;;9.35;78.08;99550.95;86554;1304;88031;-68
2021/11/21 08:16:51;;;;;;;21.10;15.00;;;;;;;9.32;78.04;99551.89;86790;1301;94072;-69
2021/11/21 08:18:58;;;;;;;22.30;15.50;;;;;;;9.30;78.00;99550.77;86759;1304;79668;-67
2021/11/21 08:21:07;;;;;;;21.90;15.70;;;;;;;9.28;78.04;99550.06;86783;1296;80971;-68
2021/11/21 08:23:14;;;;;;;22.70;15.90;;;;;;;9.31;78.11;99548.36;86772;1301;99073;-67
2021/11/21 08:25:24;;;;;;;22.80;14.80;;;;;;;9.33;78.06;99546.13;86780;1298;87844;-68
2021/11/21 08:27:30;;;;;;;23.40;15.30;;;;;;;9.36;78.01;99543.05;86759;1305;93584;-68
2021/11/21 08:29:36;;;;;;;22.70;16.00;;;;;;;9.39;78.03;99540.68;86709;1301;79913;-71
2021/11/21 08:31:43;;;;;;;23.30;15.30;;;;;;;9.44;78.11;99538.92;86779;1307;80604;-63
2021/11/21 08:33:49;;;;;;;23.70;17.30;;;;;;;9.51;78.06;99540.15;86789;1301;98281;-62
2021/11/21 08:35:58;;;;;;;24.70;17.00;;;;;;;9.56;77.86;99544.55;86810;1299;89889;-63
2021/11/21 08:38:07;;;;;;;24.10;16.80;;;;;;;9.56;77.79;99548.02;86557;1306;94504;-63
2021/11/21 08:40:17;;;;;;;21.60;15.50;;;;;;;9.59;77.74;99541.61;86759;1301;77449;-69
2021/11/21 08:42:23;;;;;;;32.70;21.40;;;;;;;9.65;77.68;99535.52;86771;1301;82709;-68
2021/11/21 08:44:30;;;;;;;58.80;42.40;;;;;;;9.66;77.45;99540.17;86774;1307;98372;-68
2021/11/21 08:46:40;;;;;;;27.60;19.50;;;;;;;9.68;77.38;99541.25;86787;1301;87942;-62
2021/11/21 08:48:50;;;;;;;27.40;17.70;;;;;;;9.72;77.47;99537.58;86752;1301;93138;-62
2021/11/21 08:50:57;;;;;;;22.20;15.50;;;;;;;9.78;77.35;99536.91;86766;1304;80080;-62
2021/11/21 08:53:05;;;;;;;25.20;17.00;;;;;;;9.84;77.29;99536.30;86753;1305;83588;-62
2021/11/21 08:55:12;;;;;;;25.70;18.10;;;;;;;9.90;77.29;99537.44;86776;1301;98712;-66
2021/11/21 08:57:21;;;;;;;24.40;17.60;;;;;;;9.94;77.17;99537.48;86792;1305;87642;-68
2021/11/21 08:59:31;;;;;;;21.60;15.50;;;;;;;9.99;77.16;99531.70;86751;1304;93356;-69
2021/11/21 09:01:41;;;;;;;22.70;16.60;;;;;;;9.99;76.89;99536.49;86774;1302;79556;-67
2021/11/21 09:03:51;;;;;;;23.00;16.60;;;;;;;9.97;76.75;99535.63;86791;1301;80649;-68
2021/11/21 09:06:00;;;;;;;23.40;17.20;;;;;;;9.95;76.73;99536.92;86787;1305;99828;-63
2021/11/21 09:08:08;;;;;;;24.00;17.00;;;;;;;9.88;76.69;99536.23;86793;1304;89132;-63
2021/11/21 09:10:21;;;;;;;22.50;16.40;;;;;;;9.81;76.49;99537.05;86590;1305;95422;-63
2021/11/21 09:12:28;;;;;;;22.80;15.50;;;;;;;9.70;76.51;99541.05;86761;1305;78204;-63
2021/11/21 09:14:34;;;;;;;21.60;15.60;;;;;;;9.64;76.60;99541.54;86593;1300;80832;-61
2021/11/21 09:16:40;;;;;;;24.90;18.10;;;;;;;9.57;76.63;99536.71;86534;1304;100229;-68
2021/11/21 09:18:47;;;;;;;24.30;17.80;;;;;;;9.61;76.69;99534.36;86797;1300;89387;-67
2021/11/21 09:20:55;;;;;;;21.50;16.20;;;;;;;9.63;76.57;99532.62;86778;1301;94252;-62
2021/11/21 09:23:03;;;;;;;23.50;15.90;;;;;;;9.67;76.67;99538.89;86767;1307;82608;-63
2021/11/21 09:25:11;;;;;;;21.90;16.00;;;;;;;9.72;76.62;99540.93;86790;1301;82334;-69
2021/11/21 09:27:18;;;;;;;22.60;15.40;;;;;;;9.74;76.58;99538.66;86779;1304;100341;-67
2021/11/21 09:29:24;;;;;;;20.60;15.70;;;;;;;9.75;76.59;99538.83;86756;1302;89017;-68
2021/11/21 09:31:31;;;;;;;21.30;15.20;;;;;;;9.75;76.61;99534.05;86788;1301;95597;-68
2021/11/21 09:33:40;;;;;;;22.20;16.60;;;;;;;9.75;76.49;99530.77;86779;1302;79945;-69
2021/11/21 09:35:47;;;;;;;21.20;16.20;;;;;;;9.71;76.26;99528.27;86779;1298;84169;-62
2021/11/21 09:37:53;;;;;;;21.90;16.50;;;;;;;9.70;76.28;99535.33;86776;1307;99215;-62
2021/11/21 09:40:00;;;;;;;23.20;16.00;;;;;;;9.68;76.43;99529.64;86802;1300;87525;-64
2021/11/21 09:42:07;;;;;;;25.00;16.60;;;;;;;9.66;76.25;99529.52;86753;1306;94779;-63
2021/11/21 09:44:15;;;;;;;27.00;19.50;;;;;;;9.63;76.27;99532.41;86765;1297;82801;-62
2021/11/21 09:46:21;;;;;;;23.70;16.80;;;;;;;9.62;76.39;99534.28;86608;1303;81548;-66
2021/11/21 09:49:04;;;;;;;22.90;17.20;;;;;;;9.64;76.36;99531.13;86767;1299;96618;-63
2021/11/21 09:51:28;;;;;;;23.80;17.10;;;;;;;9.64;76.42;99526.40;86804;1302;86969;-63
2021/11/21 09:53:35;;;;;;;20.40;15.80;;;;;;;9.68;76.37;99521.55;86764;1301;95216;-64
2021/11/21 09:55:42;;;;;;;21.10;15.70;;;;;;;9.70;76.22;99521.60;86761;1304;79594;-63